KDDC

Dodge City Regional Airport

Dodge City, Kansas, USA
METAR KDDC 211252Z AUTO 02006KT 10SM SCT110 M16/M19 A3045 RMK AO2 SLP356 T11561189
Observed Flight Rules
Feb-21 @ 12:52 UTC (27 minutes ago) Visual Flight Rules
Wind Visibility Clouds
20° at 6 knots 10 miles
  • Scattered at 11,000' AGL
Temperatures Readings
Current -16°C / 3°F
Dewpoint -19°C / -2°F
Humidity 78%
Altimeter 30.45" Hg
Pressure 1035.6 hPa
Elevation 789
METAR KDDC 211252Z AUTO 02006KT 10SM SCT110 M16/M19 A3045 RMK AO2 SLP356 T11561189
Observed Flight Rules
Feb-21 @ 12:52 UTC
(27 minutes ago)
VFR
Wind Visibility
20° at 6 knots 10 miles
Clouds
  • Scattered at 11,000' AGL
Temperature Dewpoint
-16°C / 3°F -19°C / -2°F
Humidity Altimeter Pressure
78% 30.45" Hg 1035.6 hPa